createdAt,value
2018-07-04T00:00:53.913Z,1011.97
2018-07-04T00:01:53.919Z,1012.01
2018-07-04T00:02:53.919Z,1011.99
2018-07-04T00:03:53.793Z,1011.92
2018-07-04T00:04:53.792Z,1012.00
2018-07-04T00:05:53.792Z,1011.99
2018-07-04T00:06:53.671Z,1011.97
2018-07-04T00:07:53.671Z,1011.97
2018-07-04T00:08:53.673Z,1011.96
2018-07-04T00:09:53.553Z,1011.97
2018-07-04T00:10:53.551Z,1011.94
2018-07-04T00:11:53.554Z,1011.95
2018-07-04T00:12:53.431Z,1011.92
2018-07-04T00:13:53.429Z,1011.95
2018-07-04T00:14:53.432Z,1011.97
2018-07-04T00:15:53.310Z,1012.00
2018-07-04T00:16:53.312Z,1012.01
2018-07-04T00:17:53.309Z,1012.02
2018-07-04T00:18:53.206Z,1012.01
2018-07-04T00:19:53.191Z,1012.00
2018-07-04T00:20:53.192Z,1012.02
2018-07-04T00:21:53.074Z,1011.99
2018-07-04T00:22:53.071Z,1012.01
2018-07-04T00:23:53.069Z,1012.00
2018-07-04T00:24:52.950Z,1012.06
2018-07-04T00:25:52.949Z,1012.01
2018-07-04T00:26:52.952Z,1012.02
2018-07-04T00:27:52.830Z,1012.00
2018-07-04T00:28:52.826Z,1011.97
2018-07-04T00:29:52.831Z,1012.00
2018-07-04T00:30:52.707Z,1012.05
2018-07-04T00:31:52.704Z,1011.97
2018-07-04T00:32:52.709Z,1012.02
2018-07-04T00:33:52.585Z,1012.00
2018-07-04T00:34:52.585Z,1011.98
2018-07-04T00:35:52.589Z,1012.01
2018-07-04T00:36:52.465Z,1011.99
2018-07-04T00:37:52.466Z,1012.01
2018-07-04T00:38:52.464Z,1012.01
2018-07-04T00:39:52.346Z,1012.03
2018-07-04T00:40:52.348Z,1012.01
2018-07-04T00:41:52.344Z,1011.95
2018-07-04T00:42:52.226Z,1011.93
2018-07-04T00:43:52.223Z,1011.93
2018-07-04T00:44:52.227Z,1011.93
2018-07-04T00:45:52.104Z,1011.93
2018-07-04T00:46:52.105Z,1011.90
2018-07-04T00:47:52.102Z,1011.87
2018-07-04T00:48:51.986Z,1011.90
2018-07-04T00:49:51.984Z,1011.88
2018-07-04T00:50:51.982Z,1011.88
2018-07-04T00:51:51.861Z,1011.87
2018-07-04T00:52:51.862Z,1011.91
2018-07-04T00:53:51.861Z,1011.83
2018-07-04T00:54:51.740Z,1011.83
2018-07-04T00:55:51.742Z,1011.86
2018-07-04T00:56:51.742Z,1011.83
2018-07-04T00:57:51.622Z,1011.80
2018-07-04T00:58:51.621Z,1011.84
2018-07-04T00:59:51.623Z,1011.76
2018-07-04T01:00:51.498Z,1011.78
2018-07-04T01:01:51.504Z,1011.74
2018-07-04T01:02:51.501Z,1011.75
2018-07-04T01:03:51.456Z,1011.70
2018-07-04T01:04:51.380Z,1011.72
2018-07-04T01:05:51.377Z,1011.68
2018-07-04T01:06:51.340Z,1011.68
2018-07-04T01:07:51.260Z,1011.67
2018-07-04T01:08:51.260Z,1011.63
2018-07-04T01:09:51.257Z,1011.61
2018-07-04T01:10:51.139Z,1011.59
2018-07-04T01:11:51.137Z,1011.55
2018-07-04T01:12:51.135Z,1011.52
2018-07-04T01:13:51.019Z,1011.51
2018-07-04T01:14:51.025Z,1011.53
2018-07-04T01:15:51.017Z,1011.56
2018-07-04T01:16:50.895Z,1011.53
2018-07-04T01:17:50.895Z,1011.56
2018-07-04T01:18:50.894Z,1011.56
2018-07-04T01:19:50.775Z,1011.56
2018-07-04T01:20:50.776Z,1011.53
2018-07-04T01:21:50.775Z,1011.50
2018-07-04T01:22:50.657Z,1011.50
2018-07-04T01:23:50.653Z,1011.49
2018-07-04T01:24:50.657Z,1011.53
2018-07-04T01:25:50.533Z,1011.52
2018-07-04T01:26:50.535Z,1011.51
2018-07-04T01:27:50.532Z,1011.49
2018-07-04T01:28:50.413Z,1011.50
2018-07-04T01:29:50.413Z,1011.50
2018-07-04T01:30:50.413Z,1011.52
2018-07-04T01:31:50.296Z,1011.51
2018-07-04T01:32:50.295Z,1011.56
2018-07-04T01:33:50.292Z,1011.52
2018-07-04T01:34:50.174Z,1011.51
2018-07-04T01:35:50.170Z,1011.52
2018-07-04T01:36:50.169Z,1011.49
2018-07-04T01:37:50.055Z,1011.53
2018-07-04T01:38:50.049Z,1011.50
2018-07-04T01:39:50.050Z,1011.49
2018-07-04T01:40:49.935Z,1011.52
2018-07-04T01:41:49.931Z,1011.45
2018-07-04T01:42:49.929Z,1011.44
2018-07-04T01:43:49.810Z,1011.44
2018-07-04T01:44:49.808Z,1011.38
2018-07-04T01:45:49.854Z,1011.41
2018-07-04T01:46:49.689Z,1011.38
2018-07-04T01:47:49.688Z,1011.35
2018-07-04T01:48:49.687Z,1011.30
2018-07-04T01:49:49.567Z,1011.30
2018-07-04T01:50:49.568Z,1011.32
2018-07-04T01:51:49.566Z,1011.28
2018-07-04T01:52:49.447Z,1011.29
2018-07-04T01:53:49.447Z,1011.25
2018-07-04T01:54:49.448Z,1011.26
2018-07-04T01:55:49.328Z,1011.22
2018-07-04T01:56:49.325Z,1011.25
2018-07-04T01:57:49.326Z,1011.25
2018-07-04T01:58:49.206Z,1011.19
2018-07-04T01:59:49.205Z,1011.20
2018-07-04T02:00:49.204Z,1011.18
2018-07-04T02:01:49.089Z,1011.21
2018-07-04T02:02:49.085Z,1011.17
2018-07-04T02:03:49.087Z,1011.18
2018-07-04T02:04:48.965Z,1011.16
2018-07-04T02:05:48.970Z,1011.17
2018-07-04T02:06:48.964Z,1011.17
2018-07-04T02:07:48.844Z,1011.19
2018-07-04T02:08:48.847Z,1011.16
2018-07-04T02:09:48.842Z,1011.20
2018-07-04T02:10:48.725Z,1011.17
2018-07-04T02:11:48.723Z,1011.19
2018-07-04T02:12:48.723Z,1011.21
2018-07-04T02:13:48.606Z,1011.20
2018-07-04T02:14:48.602Z,1011.19
2018-07-04T02:15:48.610Z,1011.19
2018-07-04T02:16:48.483Z,1011.21
2018-07-04T02:17:48.483Z,1011.21
2018-07-04T02:18:48.481Z,1011.23
2018-07-04T02:19:48.361Z,1011.20
2018-07-04T02:20:48.363Z,1011.17
2018-07-04T02:21:48.362Z,1011.16
2018-07-04T02:22:48.242Z,1011.16
2018-07-04T02:23:48.242Z,1011.15
2018-07-04T02:24:48.243Z,1011.17
2018-07-04T02:25:48.120Z,1011.14
2018-07-04T02:26:48.119Z,1011.15
2018-07-04T02:27:48.119Z,1011.11
2018-07-04T02:28:48.002Z,1011.09
2018-07-04T02:29:48.001Z,1011.11
2018-07-04T02:30:48.000Z,1011.08
2018-07-04T02:31:47.879Z,1011.12
2018-07-04T02:32:47.880Z,1011.12
2018-07-04T02:33:47.883Z,1011.13
2018-07-04T02:34:47.762Z,1011.17
2018-07-04T02:35:47.759Z,1011.17
2018-07-04T02:36:47.757Z,1011.15
2018-07-04T02:37:47.637Z,1011.16
2018-07-04T02:38:47.635Z,1011.17
2018-07-04T02:39:47.841Z,1011.18
2018-07-04T02:40:47.518Z,1011.14
2018-07-04T02:41:47.515Z,1011.15
2018-07-04T02:42:47.525Z,1011.18
2018-07-04T02:43:47.399Z,1011.17
2018-07-04T02:44:47.437Z,1011.17
2018-07-04T02:45:47.397Z,1011.14
2018-07-04T02:46:47.278Z,1011.13
2018-07-04T02:47:47.274Z,1011.13
2018-07-04T02:48:47.278Z,1011.13
2018-07-04T02:49:47.157Z,1011.14
2018-07-04T02:50:47.158Z,1011.16
2018-07-04T02:51:47.156Z,1011.14
2018-07-04T02:52:47.033Z,1011.15
2018-07-04T02:53:47.036Z,1011.13
2018-07-04T02:54:47.034Z,1011.15
2018-07-04T02:55:46.916Z,1011.17
2018-07-04T02:56:46.914Z,1011.17
2018-07-04T02:57:46.913Z,1011.14
2018-07-04T02:58:46.907Z,1011.19
2018-07-04T02:59:46.793Z,1011.16
2018-07-04T03:00:46.791Z,1011.19
2018-07-04T03:01:46.670Z,1011.20
2018-07-04T03:02:46.679Z,1011.21
2018-07-04T03:03:46.677Z,1011.21
2018-07-04T03:04:46.551Z,1011.22
2018-07-04T03:05:46.550Z,1011.23
2018-07-04T03:06:46.550Z,1011.21
2018-07-04T03:07:46.430Z,1011.25
2018-07-04T03:08:46.431Z,1011.21
2018-07-04T03:09:46.429Z,1011.18
2018-07-04T03:10:46.311Z,1011.14
2018-07-04T03:11:46.309Z,1011.16
2018-07-04T03:12:46.309Z,1011.13
2018-07-04T03:13:46.189Z,1011.12
2018-07-04T03:14:46.187Z,1011.12
2018-07-04T03:15:46.188Z,1011.18
2018-07-04T03:16:46.069Z,1011.15
2018-07-04T03:17:46.072Z,1011.13
2018-07-04T03:18:46.069Z,1011.12
2018-07-04T03:19:45.948Z,1011.12
2018-07-04T03:20:45.947Z,1011.09
2018-07-04T03:21:45.958Z,1011.07
2018-07-04T03:22:45.830Z,1011.06
2018-07-04T03:23:45.825Z,1011.04
2018-07-04T03:24:45.828Z,1011.03
2018-07-04T03:25:45.708Z,1011.02
2018-07-04T03:26:45.760Z,1011.02
2018-07-04T03:27:45.707Z,1011.05
2018-07-04T03:28:45.709Z,1011.04
2018-07-04T03:29:45.589Z,1011.01
2018-07-04T03:30:45.585Z,1011.03
2018-07-04T03:31:45.465Z,1011.03
2018-07-04T03:32:45.470Z,1011.05
2018-07-04T03:33:45.463Z,1011.02
2018-07-04T03:34:45.342Z,1011.04
2018-07-04T03:35:45.345Z,1011.06
2018-07-04T03:36:45.343Z,1011.01
2018-07-04T03:37:45.222Z,1011.01
2018-07-04T03:38:45.227Z,1010.97
2018-07-04T03:39:45.222Z,1010.98
2018-07-04T03:40:45.102Z,1010.96
2018-07-04T03:41:45.107Z,1010.97
2018-07-04T03:42:45.104Z,1010.96
2018-07-04T03:43:44.987Z,1010.99
2018-07-04T03:44:44.993Z,1010.99
2018-07-04T03:45:44.982Z,1010.98
2018-07-04T03:46:44.862Z,1011.00
2018-07-04T03:47:44.860Z,1010.96
2018-07-04T03:48:44.864Z,1010.98
2018-07-04T03:49:44.775Z,1011.03
2018-07-04T03:50:44.743Z,1011.05
2018-07-04T03:51:44.741Z,1011.01
2018-07-04T03:52:44.622Z,1011.07
2018-07-04T03:53:44.623Z,1011.10
2018-07-04T03:54:44.621Z,1011.09
2018-07-04T03:55:44.499Z,1011.07
2018-07-04T03:56:44.499Z,1011.10
2018-07-04T03:57:44.501Z,1011.08
2018-07-04T03:58:44.379Z,1011.11
2018-07-04T03:59:44.377Z,1011.06
2018-07-04T04:00:44.379Z,1011.05
2018-07-04T04:01:44.260Z,1011.02
2018-07-04T04:02:44.257Z,1010.98
2018-07-04T04:03:44.258Z,1010.98
2018-07-04T04:04:44.138Z,1010.98
2018-07-04T04:05:44.140Z,1010.95
2018-07-04T04:06:44.140Z,1010.97
2018-07-04T04:07:44.017Z,1010.96
2018-07-04T04:08:44.019Z,1010.94
2018-07-04T04:09:44.017Z,1010.95
2018-07-04T04:10:43.897Z,1010.87
2018-07-04T04:11:43.897Z,1010.94
2018-07-04T04:12:43.895Z,1010.95
2018-07-04T04:13:43.774Z,1010.90
2018-07-04T04:14:43.777Z,1010.93
2018-07-04T04:15:43.777Z,1010.94
2018-07-04T04:16:43.654Z,1010.95
2018-07-04T04:17:43.655Z,1010.96
2018-07-04T04:18:43.656Z,1010.95
2018-07-04T04:19:43.550Z,1010.92
2018-07-04T04:20:43.535Z,1010.91
2018-07-04T04:21:43.536Z,1010.91
2018-07-04T04:22:43.413Z,1010.90
2018-07-04T04:23:43.412Z,1010.93
2018-07-04T04:24:43.412Z,1010.96
2018-07-04T04:25:43.292Z,1010.99
2018-07-04T04:26:43.292Z,1010.98
2018-07-04T04:27:43.292Z,1011.04
2018-07-04T04:28:43.177Z,1011.04
2018-07-04T04:29:43.172Z,1011.03
2018-07-04T04:30:43.170Z,1011.06
2018-07-04T04:31:43.057Z,1011.10
2018-07-04T04:32:43.055Z,1011.06
2018-07-04T04:33:43.052Z,1011.07
2018-07-04T04:34:42.937Z,1011.12
2018-07-04T04:35:42.935Z,1011.13
2018-07-04T04:36:42.931Z,1011.08
2018-07-04T04:37:42.812Z,1011.07
2018-07-04T04:38:42.811Z,1011.12
2018-07-04T04:39:42.810Z,1011.07
2018-07-04T04:40:42.691Z,1011.09
2018-07-04T04:41:42.689Z,1011.10
2018-07-04T04:42:42.688Z,1011.11
2018-07-04T04:43:42.568Z,1011.14
2018-07-04T04:44:42.568Z,1011.14
2018-07-04T04:45:42.567Z,1011.09
2018-07-04T04:46:42.450Z,1011.11
2018-07-04T04:47:42.446Z,1011.11
2018-07-04T04:48:42.447Z,1011.12
2018-07-04T04:49:42.330Z,1011.15
2018-07-04T04:50:42.326Z,1011.12
2018-07-04T04:51:42.329Z,1011.09
2018-07-04T04:52:42.207Z,1011.14
2018-07-04T04:53:42.207Z,1011.12
2018-07-04T04:54:42.253Z,1011.11
2018-07-04T04:55:42.086Z,1011.14
2018-07-04T04:56:42.088Z,1011.11
2018-07-04T04:57:42.088Z,1011.15
2018-07-04T04:58:41.968Z,1011.11
2018-07-04T04:59:41.965Z,1011.14
2018-07-04T05:00:41.968Z,1011.11
2018-07-04T05:01:41.848Z,1011.11
2018-07-04T05:02:41.849Z,1011.10
2018-07-04T05:03:41.844Z,1011.12
2018-07-04T05:04:41.726Z,1011.11
2018-07-04T05:05:41.731Z,1011.12
2018-07-04T05:06:41.724Z,1011.13
2018-07-04T05:07:41.605Z,1011.15
2018-07-04T05:08:41.603Z,1011.15
2018-07-04T05:09:41.602Z,1011.15
2018-07-04T05:10:41.483Z,1011.09
2018-07-04T05:11:41.485Z,1011.12
2018-07-04T05:12:41.481Z,1011.17
2018-07-04T05:13:41.363Z,1011.15
2018-07-04T05:14:41.362Z,1011.14
2018-07-04T05:15:41.385Z,1011.13
2018-07-04T05:16:41.243Z,1011.15
2018-07-04T05:17:41.243Z,1011.13
2018-07-04T05:18:41.240Z,1011.11
2018-07-04T05:19:41.125Z,1011.09
2018-07-04T05:20:41.121Z,1011.08
2018-07-04T05:21:41.120Z,1011.10
2018-07-04T05:22:41.042Z,1011.10
2018-07-04T05:23:40.999Z,1011.11
2018-07-04T05:24:41.001Z,1011.08
2018-07-04T05:25:40.882Z,1011.12
2018-07-04T05:26:40.880Z,1011.09
2018-07-04T05:27:40.880Z,1011.10
2018-07-04T05:28:40.762Z,1011.09
2018-07-04T05:29:40.763Z,1011.10
2018-07-04T05:30:40.760Z,1011.09
2018-07-04T05:31:40.639Z,1011.06
2018-07-04T05:32:40.642Z,1011.06
2018-07-04T05:33:40.640Z,1011.05
2018-07-04T05:34:40.524Z,1011.04
2018-07-04T05:35:40.521Z,1011.08
2018-07-04T05:36:40.521Z,1011.08
2018-07-04T05:37:40.397Z,1011.06
2018-07-04T05:38:40.399Z,1011.10
2018-07-04T05:39:40.395Z,1011.08
2018-07-04T05:40:40.278Z,1011.07
2018-07-04T05:41:40.279Z,1011.11
2018-07-04T05:42:40.282Z,1011.10
2018-07-04T05:43:40.154Z,1011.11
2018-07-04T05:44:40.159Z,1011.09
2018-07-04T05:45:40.154Z,1011.11
2018-07-04T05:46:40.036Z,1011.08
2018-07-04T05:47:40.067Z,1011.06
2018-07-04T05:48:40.042Z,1011.08
2018-07-04T05:49:39.995Z,1011.02
2018-07-04T05:50:39.915Z,1011.03
2018-07-04T05:51:39.916Z,1011.00
2018-07-04T05:52:39.909Z,1010.98
2018-07-04T05:53:39.795Z,1011.02
2018-07-04T05:54:39.790Z,1011.02
2018-07-04T05:55:39.750Z,1010.96
2018-07-04T05:56:39.674Z,1010.96
2018-07-04T05:57:39.672Z,1010.97
2018-07-04T05:58:39.671Z,1010.98
2018-07-04T05:59:39.552Z,1010.95
2018-07-04T06:00:39.554Z,1010.97
2018-07-04T06:01:39.553Z,1010.98
2018-07-04T06:02:39.478Z,1010.98
2018-07-04T06:03:39.435Z,1010.95
2018-07-04T06:04:39.431Z,1010.99
2018-07-04T06:05:39.312Z,1010.99
2018-07-04T06:06:39.310Z,1011.01
2018-07-04T06:07:39.316Z,1011.01
2018-07-04T06:08:39.193Z,1011.02
2018-07-04T06:09:39.190Z,1011.02
2018-07-04T06:10:39.190Z,1011.03
2018-07-04T06:11:39.067Z,1011.02
2018-07-04T06:12:39.075Z,1011.00
2018-07-04T06:13:39.070Z,1011.02
2018-07-04T06:14:38.950Z,1010.98
2018-07-04T06:15:38.951Z,1010.99
2018-07-04T06:16:38.952Z,1010.95
2018-07-04T06:17:38.863Z,1010.99
2018-07-04T06:18:38.828Z,1010.99
2018-07-04T06:19:38.829Z,1010.97
2018-07-04T06:20:38.709Z,1011.00
2018-07-04T06:21:38.707Z,1010.97
2018-07-04T06:22:38.706Z,1010.98
2018-07-04T06:23:38.592Z,1011.01
2018-07-04T06:24:38.639Z,1011.02
2018-07-04T06:25:38.591Z,1010.99
2018-07-04T06:26:38.476Z,1011.00
2018-07-04T06:27:38.468Z,1010.98
2018-07-04T06:28:38.469Z,1010.97
2018-07-04T06:29:38.345Z,1010.99
2018-07-04T06:30:38.345Z,1010.95
2018-07-04T06:31:38.345Z,1010.97
2018-07-04T06:32:38.224Z,1010.95
2018-07-04T06:33:38.224Z,1010.94
2018-07-04T06:34:38.227Z,1010.95
2018-07-04T06:35:38.104Z,1010.92
2018-07-04T06:36:38.103Z,1010.89
2018-07-04T06:37:38.101Z,1010.91
2018-07-04T06:38:37.988Z,1010.90
2018-07-04T06:39:37.988Z,1010.91
2018-07-04T06:40:37.985Z,1010.92
2018-07-04T06:41:37.882Z,1010.95
2018-07-04T06:42:37.862Z,1010.92
2018-07-04T06:43:37.860Z,1010.97
2018-07-04T06:44:37.741Z,1010.96
2018-07-04T06:45:37.744Z,1010.96
2018-07-04T06:46:37.744Z,1010.99
2018-07-04T06:47:37.620Z,1011.00
2018-07-04T06:48:37.626Z,1010.99
2018-07-04T06:49:37.624Z,1010.98
2018-07-04T06:50:37.578Z,1010.99
2018-07-04T06:51:37.500Z,1011.01
2018-07-04T06:52:37.500Z,1010.96
2018-07-04T06:53:37.459Z,1010.99
2018-07-04T06:54:37.379Z,1010.92
2018-07-04T06:55:37.381Z,1010.89
2018-07-04T06:56:37.379Z,1010.90
2018-07-04T06:57:37.258Z,1010.94
2018-07-04T06:58:37.263Z,1010.91
2018-07-04T06:59:37.257Z,1010.91
2018-07-04T07:00:37.138Z,1010.90
2018-07-04T07:01:37.141Z,1010.92
2018-07-04T07:02:37.142Z,1010.90
2018-07-04T07:03:37.018Z,1010.89
2018-07-04T07:04:37.020Z,1010.90
2018-07-04T07:05:37.017Z,1010.89
2018-07-04T07:06:36.896Z,1010.88
2018-07-04T07:07:36.896Z,1010.89
2018-07-04T07:08:36.952Z,1010.88
2018-07-04T07:09:36.777Z,1010.87
2018-07-04T07:10:36.775Z,1010.90
2018-07-04T07:11:36.776Z,1010.90
2018-07-04T07:12:36.660Z,1010.92
2018-07-04T07:13:36.654Z,1010.92
2018-07-04T07:14:36.668Z,1010.95
2018-07-04T07:15:36.535Z,1010.94
2018-07-04T07:16:36.532Z,1010.94
2018-07-04T07:17:36.532Z,1010.87
2018-07-04T07:18:36.413Z,1010.90
2018-07-04T07:19:36.416Z,1010.89
2018-07-04T07:20:36.412Z,1010.90
2018-07-04T07:21:36.298Z,1010.89
2018-07-04T07:22:36.292Z,1010.90
2018-07-04T07:23:36.290Z,1010.88
2018-07-04T07:24:36.249Z,1010.90
2018-07-04T07:25:36.170Z,1010.90
2018-07-04T07:26:36.172Z,1010.91
2018-07-04T07:27:36.192Z,1010.92
2018-07-04T07:28:36.050Z,1010.93
2018-07-04T07:29:36.055Z,1010.91
2018-07-04T07:30:36.049Z,1010.89
2018-07-04T07:31:35.933Z,1010.88
2018-07-04T07:32:35.932Z,1010.88
2018-07-04T07:33:35.930Z,1010.95
2018-07-04T07:34:35.808Z,1010.89
2018-07-04T07:35:35.812Z,1010.87
2018-07-04T07:36:35.808Z,1010.89
2018-07-04T07:37:35.696Z,1010.87
2018-07-04T07:38:35.690Z,1010.89
2018-07-04T07:39:35.687Z,1010.89
2018-07-04T07:40:35.570Z,1010.90
2018-07-04T07:41:35.566Z,1010.89
2018-07-04T07:42:35.570Z,1010.89
2018-07-04T07:43:35.449Z,1010.93
2018-07-04T07:44:35.453Z,1010.92
2018-07-04T07:45:35.446Z,1010.94
2018-07-04T07:46:35.443Z,1010.88
2018-07-04T07:47:35.326Z,1010.85
2018-07-04T07:48:35.325Z,1010.80
2018-07-04T07:49:35.326Z,1010.81
2018-07-04T07:50:35.205Z,1010.83
2018-07-04T07:51:35.204Z,1010.80
2018-07-04T07:52:35.204Z,1010.81
2018-07-04T07:53:35.085Z,1010.82
2018-07-04T07:54:35.085Z,1010.82
2018-07-04T07:55:35.089Z,1010.81
2018-07-04T07:56:34.963Z,1010.78
2018-07-04T07:57:34.965Z,1010.79
2018-07-04T07:58:34.964Z,1010.76
2018-07-04T07:59:34.845Z,1010.78
2018-07-04T08:00:34.847Z,1010.74
2018-07-04T08:01:34.844Z,1010.78
2018-07-04T08:02:34.722Z,1010.76
2018-07-04T08:03:34.724Z,1010.74
2018-07-04T08:04:34.722Z,1010.73
2018-07-04T08:05:34.725Z,1010.73
2018-07-04T08:06:34.607Z,1010.70
2018-07-04T08:07:34.600Z,1010.66
2018-07-04T08:08:34.599Z,1010.68
2018-07-04T08:09:34.480Z,1010.69
2018-07-04T08:10:34.486Z,1010.70
2018-07-04T08:11:34.482Z,1010.68
2018-07-04T08:12:34.363Z,1010.69
2018-07-04T08:13:34.361Z,1010.67
2018-07-04T08:14:34.361Z,1010.67
2018-07-04T08:15:34.240Z,1010.66
2018-07-04T08:16:34.238Z,1010.70
2018-07-04T08:17:34.239Z,1010.65
2018-07-04T08:18:34.124Z,1010.61
2018-07-04T08:19:34.122Z,1010.64
2018-07-04T08:20:34.120Z,1010.64
2018-07-04T08:21:34.119Z,1010.66
2018-07-04T08:22:33.997Z,1010.60
2018-07-04T08:23:33.997Z,1010.65
2018-07-04T08:24:33.998Z,1010.68
2018-07-04T08:25:33.877Z,1010.67
2018-07-04T08:26:33.878Z,1010.67
2018-07-04T08:27:33.882Z,1010.69
2018-07-04T08:28:33.756Z,1010.64
2018-07-04T08:29:33.756Z,1010.68
2018-07-04T08:30:33.756Z,1010.62
2018-07-04T08:31:33.640Z,1010.65
2018-07-04T08:32:33.638Z,1010.65
2018-07-04T08:33:33.708Z,1010.62
2018-07-04T08:34:33.635Z,1010.64
2018-07-04T08:35:33.516Z,1010.63
2018-07-04T08:36:33.514Z,1010.65
2018-07-04T08:37:33.513Z,1010.63
2018-07-04T08:38:33.395Z,1010.64
2018-07-04T08:39:33.395Z,1010.66
2018-07-04T08:40:33.393Z,1010.66
2018-07-04T08:41:33.287Z,1010.65
2018-07-04T08:42:33.274Z,1010.64
2018-07-04T08:43:33.271Z,1010.65
2018-07-04T08:44:33.152Z,1010.62
2018-07-04T08:45:33.151Z,1010.63
2018-07-04T08:46:33.152Z,1010.66
2018-07-04T08:47:33.154Z,1010.65
2018-07-04T08:48:33.030Z,1010.66
2018-07-04T08:49:33.035Z,1010.61
2018-07-04T08:50:33.040Z,1010.61
2018-07-04T08:51:32.912Z,1010.62
2018-07-04T08:52:32.920Z,1010.65
2018-07-04T08:53:32.914Z,1010.63
2018-07-04T08:54:32.867Z,1010.62
2018-07-04T08:55:32.789Z,1010.66
2018-07-04T08:56:32.789Z,1010.64
2018-07-04T08:57:32.798Z,1010.63
2018-07-04T08:58:32.715Z,1010.64
2018-07-04T08:59:32.681Z,1010.65
2018-07-04T09:00:32.676Z,1010.64
2018-07-04T09:01:32.562Z,1010.62
2018-07-04T09:02:32.561Z,1010.60
2018-07-04T09:03:32.556Z,1010.61
2018-07-04T09:04:32.548Z,1010.61
2018-07-04T09:05:32.500Z,1010.65
2018-07-04T09:06:32.430Z,1010.61
2018-07-04T09:07:32.431Z,1010.64
2018-07-04T09:08:32.308Z,1010.61
2018-07-04T09:09:32.306Z,1010.66
2018-07-04T09:10:32.306Z,1010.66
2018-07-04T09:11:32.243Z,1010.64
2018-07-04T09:12:32.187Z,1010.65
2018-07-04T09:13:32.185Z,1010.66
2018-07-04T09:14:32.185Z,1010.63
2018-07-04T09:15:32.069Z,1010.64
2018-07-04T09:16:32.071Z,1010.66
2018-07-04T09:17:32.068Z,1010.63
2018-07-04T09:18:31.944Z,1010.62
2018-07-04T09:19:31.946Z,1010.66
2018-07-04T09:20:31.948Z,1010.68
2018-07-04T09:21:31.945Z,1010.67
2018-07-04T09:22:31.827Z,1010.67
2018-07-04T09:23:31.824Z,1010.66
2018-07-04T09:24:31.881Z,1010.66
2018-07-04T09:25:31.704Z,1010.67
2018-07-04T09:26:31.701Z,1010.66
2018-07-04T09:27:31.712Z,1010.70
2018-07-04T09:28:31.664Z,1010.66
2018-07-04T09:29:31.582Z,1010.65
2018-07-04T09:30:31.591Z,1010.62
2018-07-04T09:31:31.580Z,1010.61
2018-07-04T09:32:31.463Z,1010.60
2018-07-04T09:33:31.459Z,1010.61
2018-07-04T09:34:31.461Z,1010.60
2018-07-04T09:35:31.422Z,1010.60
2018-07-04T09:36:31.340Z,1010.62
2018-07-04T09:37:31.348Z,1010.63
2018-07-04T09:38:31.390Z,1010.61
2018-07-04T09:39:31.218Z,1010.62
2018-07-04T09:40:31.218Z,1010.61
2018-07-04T09:41:31.218Z,1010.63
2018-07-04T09:42:31.175Z,1010.63
2018-07-04T09:43:31.100Z,1010.62
2018-07-04T09:44:31.097Z,1010.64
2018-07-04T09:45:31.103Z,1010.65
2018-07-04T09:46:30.982Z,1010.70
2018-07-04T09:47:30.978Z,1010.68
2018-07-04T09:48:30.978Z,1010.70
2018-07-04T09:49:30.908Z,1010.70
2018-07-04T09:50:30.855Z,1010.71
2018-07-04T09:51:30.862Z,1010.65
2018-07-04T09:52:30.859Z,1010.68
2018-07-04T09:53:30.736Z,1010.72
2018-07-04T09:54:30.735Z,1010.67
2018-07-04T09:55:30.736Z,1010.71
2018-07-04T09:56:30.692Z,1010.71
2018-07-04T09:57:30.613Z,1010.68
2018-07-04T09:58:30.618Z,1010.71
2018-07-04T09:59:30.617Z,1010.78
2018-07-04T10:00:30.493Z,1010.78
2018-07-04T10:01:30.496Z,1010.79
2018-07-04T10:02:30.499Z,1010.76
2018-07-04T10:03:30.493Z,1010.75
2018-07-04T10:04:30.375Z,1010.76
2018-07-04T10:05:30.373Z,1010.78
2018-07-04T10:06:30.372Z,1010.76
2018-07-04T10:07:30.256Z,1010.76
2018-07-04T10:08:30.251Z,1010.74
2018-07-04T10:09:30.252Z,1010.72
2018-07-04T10:10:30.253Z,1010.72
2018-07-04T10:11:30.130Z,1010.73
2018-07-04T10:12:30.137Z,1010.68
2018-07-04T10:13:30.130Z,1010.68
2018-07-04T10:14:30.011Z,1010.67
2018-07-04T10:15:30.011Z,1010.67
2018-07-04T10:16:30.010Z,1010.69
2018-07-04T10:17:30.009Z,1010.66
2018-07-04T10:18:29.890Z,1010.69
2018-07-04T10:19:29.890Z,1010.69
2018-07-04T10:20:29.890Z,1010.69
2018-07-04T10:21:29.846Z,1010.66
2018-07-04T10:22:29.770Z,1010.66
2018-07-04T10:23:29.770Z,1010.69
2018-07-04T10:24:29.768Z,1010.73
2018-07-04T10:25:29.657Z,1010.66
2018-07-04T10:26:29.646Z,1010.68
2018-07-04T10:27:29.646Z,1010.70
2018-07-04T10:28:29.655Z,1010.68
2018-07-04T10:29:29.527Z,1010.70
2018-07-04T10:30:29.525Z,1010.65
2018-07-04T10:31:29.527Z,1010.68
2018-07-04T10:32:29.407Z,1010.67
2018-07-04T10:33:29.413Z,1010.66
2018-07-04T10:34:29.407Z,1010.66
2018-07-04T10:35:29.404Z,1010.67
2018-07-04T10:36:29.284Z,1010.72
2018-07-04T10:37:29.284Z,1010.72
2018-07-04T10:38:29.285Z,1010.71
2018-07-04T10:39:29.169Z,1010.74
2018-07-04T10:40:29.163Z,1010.77
2018-07-04T10:41:29.164Z,1010.76
2018-07-04T10:42:29.164Z,1010.76
2018-07-04T10:43:29.045Z,1010.77
2018-07-04T10:44:29.044Z,1010.71
2018-07-04T10:45:29.044Z,1010.78
2018-07-04T10:46:29.042Z,1010.74
2018-07-04T10:47:28.923Z,1010.74
2018-07-04T10:48:28.928Z,1010.77
2018-07-04T10:49:28.922Z,1010.73
2018-07-04T10:50:28.803Z,1010.69
2018-07-04T10:51:28.808Z,1010.69
2018-07-04T10:52:28.801Z,1010.70
2018-07-04T10:53:28.801Z,1010.69
2018-07-04T10:54:28.687Z,1010.68
2018-07-04T10:55:28.681Z,1010.68
2018-07-04T10:56:28.692Z,1010.64
2018-07-04T10:57:28.563Z,1010.63
2018-07-04T10:58:28.572Z,1010.57
2018-07-04T10:59:28.558Z,1010.58
2018-07-04T11:00:28.559Z,1010.55
2018-07-04T11:01:28.515Z,1010.58
2018-07-04T11:02:28.437Z,1010.56
2018-07-04T11:03:28.449Z,1010.55
2018-07-04T11:04:28.486Z,1010.52
2018-07-04T11:05:28.393Z,1010.50
2018-07-04T11:06:28.332Z,1010.48
2018-07-04T11:07:28.348Z,1010.50
2018-07-04T11:08:28.198Z,1010.49
2018-07-04T11:09:28.197Z,1010.47
2018-07-04T11:10:28.197Z,1010.46
2018-07-04T11:11:28.293Z,1010.42
2018-07-04T11:12:28.075Z,1010.42
2018-07-04T11:13:28.075Z,1010.40
2018-07-04T11:14:28.077Z,1010.38
2018-07-04T11:15:27.958Z,1010.32
2018-07-04T11:16:27.957Z,1010.32
2018-07-04T11:17:27.955Z,1010.31
2018-07-04T11:18:27.957Z,1010.29
2018-07-04T11:19:27.836Z,1010.29
2018-07-04T11:20:27.840Z,1010.26
2018-07-04T11:21:27.837Z,1010.29
2018-07-04T11:22:27.717Z,1010.22
2018-07-04T11:23:27.714Z,1010.27
2018-07-04T11:24:27.717Z,1010.26
2018-07-04T11:25:27.713Z,1010.25
2018-07-04T11:26:27.595Z,1010.27
2018-07-04T11:27:27.597Z,1010.17
2018-07-04T11:28:27.598Z,1010.14
2018-07-04T11:29:27.550Z,1010.15
2018-07-04T11:30:27.472Z,1010.12
2018-07-04T11:31:27.475Z,1010.08
2018-07-04T11:32:27.470Z,1010.12
2018-07-04T11:33:27.674Z,1010.09
2018-07-04T11:34:27.349Z,1010.08
2018-07-04T11:35:27.350Z,1010.06
2018-07-04T11:36:27.351Z,1010.04
2018-07-04T11:37:27.231Z,1010.04
2018-07-04T11:38:27.302Z,1010.01
2018-07-04T11:39:27.229Z,1010.06
2018-07-04T11:40:27.112Z,1010.01
2018-07-04T11:41:27.109Z,1010.01
2018-07-04T11:42:27.108Z,1009.97
2018-07-04T11:43:27.107Z,1009.99
2018-07-04T11:44:26.986Z,1009.98
2018-07-04T11:45:26.988Z,1009.96
2018-07-04T11:46:26.987Z,1009.95
2018-07-04T11:47:26.945Z,1009.92
2018-07-04T11:48:26.870Z,1009.92
2018-07-04T11:49:26.867Z,1009.96
2018-07-04T11:50:26.867Z,1009.98
2018-07-04T11:51:26.744Z,1009.95
2018-07-04T11:52:26.747Z,1009.91
2018-07-04T11:53:26.751Z,1009.91
2018-07-04T11:54:26.744Z,1009.90
2018-07-04T11:55:26.625Z,1009.91
2018-07-04T11:56:26.640Z,1009.99
2018-07-04T11:57:26.624Z,1010.00
2018-07-04T11:58:26.505Z,1010.02
2018-07-04T11:59:26.504Z,1010.01
2018-07-04T12:00:26.507Z,1010.00
2018-07-04T12:01:26.502Z,1010.01
2018-07-04T12:02:26.382Z,1010.08
2018-07-04T12:03:26.386Z,1010.05
2018-07-04T12:04:26.382Z,1010.05
2018-07-04T12:05:26.391Z,1010.08